Date,TemperatureHighF,TemperatureAvgF,TemperatureLowF,DewpointHighF,DewpointAvgF,DewpointLowF,HumidityHigh,HumidityAvg,HumidityLow,PressureMaxIn,PressureMinIn,WindSpeedMaxMPH,WindSpeedAvgMPH,GustSpeedMaxMPH,PrecipitationSumIn
2013-8-1,79,70,64,66,61,57,88,75,56,29.92,29.82,12,4,12,0.00
2013-8-2,77,69,60,61,58,54,83,68,48,29.95,29.86,20,7,20,0.00
2013-8-3,74,67,63,65,60,54,88,79,63,29.95,29.89,21,7,21,0.21
2013-8-4,72,64,56,57,54,51,86,70,54,30.06,29.95,10,2,10,0.00
2013-8-5,73,64,54,57,53,49,85,68,49,30.10,29.98,10,1,10,0.00
2013-8-6,79,69,58,62,56,52,84,66,47,30.00,29.93,13,2,13,0.00
2013-8-7,84,71,65,71,63,59,87,78,62,29.96,29.86,29,6,29,0.75
2013-8-8,84,74,67,73,67,63,87,81,67,29.93,29.86,17,7,17,0.00
2013-8-9,79,72,66,72,67,62,89,84,77,29.99,29.83,21,4,21,0.06
2013-8-10,80,72,63,66,62,58,85,72,58,30.05,29.95,12,2,12,0.00
2013-8-11,82,70,62,68,62,56,87,76,57,30.08,29.97,13,2,13,0.38
2013-8-12,82,72,64,68,64,60,89,76,57,30.02,29.83,14,4,14,0.01
2013-8-13,76,69,58,68,60,48,87,75,59,29.94,29.75,16,7,16,0.04
2013-8-14,66,58,51,54,49,46,83,72,58,30.13,29.93,8,1,8,0.00
2013-8-15,72,61,52,55,49,47,82,66,45,30.18,30.07,12,1,12,0.00
2013-8-16,77,65,54,60,52,48,85,65,42,30.13,30.07,12,1,12,0.00
2013-8-17,76,67,58,60,55,52,83,67,48,30.21,30.14,10,2,10,0.00
2013-8-18,70,66,61,63,60,55,87,81,74,30.18,30.10,8,1,8,0.07
2013-8-19,78,69,65,66,62,58,89,80,62,30.12,30.03,12,2,12,0.07
2013-8-20,82,71,61,64,59,56,84,68,49,30.16,30.06,9,3,9,0.00
2013-8-21,82,72,62,67,62,57,86,72,51,30.16,30.01,12,2,12,0.00
2013-8-22,83,72,65,69,65,60,85,79,60,30.06,29.93,24,6,24,0.02
2013-8-23,79,70,65,66,62,54,89,76,56,30.11,29.93,10,2,10,0.02
2013-8-24,80,68,57,64,57,52,84,68,50,30.26,30.11,7,1,7,0.00
2013-8-25,82,70,60,63,59,54,82,68,47,30.32,30.19,13,6,13,0.00
2013-8-26,84,72,62,66,61,56,80,69,52,30.22,29.98,21,8,21,0.00
2013-8-27,80,73,70,70,67,64,87,80,70,29.99,29.89,16,7,17,0.04
2013-8-28,80,73,70,73,69,66,89,87,76,29.90,29.76,16,5,16,0.49
2013-8-29,82,74,69,70,67,65,89,79,61,29.99,29.86,8,2,8,0.00
2013-8-30,86,76,68,72,67,63,86,75,59,29.96,29.78,17,7,17,0.00
2013-8-31,86,76,70,71,68,65,85,77,58,29.81,29.72,16,8,16,0.00